sensor_id;sensor_type;location;lat;lon;timestamp;P1;durP1;ratioP1;P2;durP2;ratioP2
27706;SDS011;36332;51.384;0.040;2023-01-30T00:01:57;15.88;;;5.57;;
27706;SDS011;36332;51.384;0.040;2023-01-30T00:04:26;9.05;;;4.57;;
27706;SDS011;36332;51.384;0.040;2023-01-30T00:06:55;11.50;;;4.75;;
27706;SDS011;36332;51.384;0.040;2023-01-30T00:09:23;11.07;;;4.63;;
27706;SDS011;36332;51.384;0.040;2023-01-30T00:11:51;7.35;;;4.38;;
27706;SDS011;36332;51.384;0.040;2023-01-30T00:14:20;15.07;;;5.22;;
27706;SDS011;36332;51.384;0.040;2023-01-30T00:16:48;13.55;;;5.05;;
27706;SDS011;36332;51.384;0.040;2023-01-30T00:19:17;11.35;;;4.75;;
27706;SDS011;36332;51.384;0.040;2023-01-30T00:21:45;9.50;;;4.65;;
27706;SDS011;36332;51.384;0.040;2023-01-30T00:24:13;13.00;;;5.55;;
27706;SDS011;36332;51.384;0.040;2023-01-30T00:26:42;15.43;;;4.57;;
27706;SDS011;36332;51.384;0.040;2023-01-30T00:29:10;12.27;;;4.70;;
27706;SDS011;36332;51.384;0.040;2023-01-30T00:31:38;17.20;;;4.68;;
27706;SDS011;36332;51.384;0.040;2023-01-30T00:34:06;12.18;;;4.60;;
27706;SDS011;36332;51.384;0.040;2023-01-30T00:36:35;10.60;;;4.47;;
27706;SDS011;36332;51.384;0.040;2023-01-30T00:39:04;9.48;;;4.00;;
27706;SDS011;36332;51.384;0.040;2023-01-30T00:41:32;11.73;;;4.70;;
27706;SDS011;36332;51.384;0.040;2023-01-30T00:44:20;8.52;;;3.90;;
27706;SDS011;36332;51.384;0.040;2023-01-30T00:47:07;10.65;;;5.18;;
27706;SDS011;36332;51.384;0.040;2023-01-30T00:49:36;12.73;;;5.25;;
27706;SDS011;36332;51.384;0.040;2023-01-30T00:52:04;12.65;;;3.85;;
27706;SDS011;36332;51.384;0.040;2023-01-30T00:54:33;17.17;;;4.40;;
27706;SDS011;36332;51.384;0.040;2023-01-30T00:57:01;8.13;;;4.55;;
27706;SDS011;36332;51.384;0.040;2023-01-30T00:59:30;12.40;;;4.03;;
27706;SDS011;36332;51.384;0.040;2023-01-30T01:01:58;11.55;;;4.50;;
27706;SDS011;36332;51.384;0.040;2023-01-30T01:04:26;11.27;;;3.53;;
27706;SDS011;36332;51.384;0.040;2023-01-30T01:06:54;12.25;;;3.35;;
27706;SDS011;36332;51.384;0.040;2023-01-30T01:09:22;13.73;;;3.60;;
27706;SDS011;36332;51.384;0.040;2023-01-30T01:11:51;14.38;;;3.88;;
27706;SDS011;36332;51.384;0.040;2023-01-30T01:14:20;9.93;;;3.03;;
27706;SDS011;36332;51.384;0.040;2023-01-30T01:16:48;9.55;;;3.63;;
27706;SDS011;36332;51.384;0.040;2023-01-30T01:19:16;9.27;;;3.20;;
27706;SDS011;36332;51.384;0.040;2023-01-30T01:21:44;11.80;;;4.20;;
27706;SDS011;36332;51.384;0.040;2023-01-30T01:24:14;10.10;;;3.50;;
27706;SDS011;36332;51.384;0.040;2023-01-30T01:26:42;5.75;;;3.35;;
27706;SDS011;36332;51.384;0.040;2023-01-30T01:29:12;10.70;;;4.03;;
27706;SDS011;36332;51.384;0.040;2023-01-30T01:31:41;9.70;;;3.45;;
27706;SDS011;36332;51.384;0.040;2023-01-30T01:34:10;11.30;;;3.65;;
27706;SDS011;36332;51.384;0.040;2023-01-30T01:36:38;10.10;;;3.58;;
27706;SDS011;36332;51.384;0.040;2023-01-30T01:39:22;11.35;;;3.42;;
27706;SDS011;36332;51.384;0.040;2023-01-30T01:41:50;11.70;;;3.40;;
27706;SDS011;36332;51.384;0.040;2023-01-30T01:44:18;13.30;;;3.72;;
27706;SDS011;36332;51.384;0.040;2023-01-30T01:49:28;11.82;;;3.60;;
27706;SDS011;36332;51.384;0.040;2023-01-30T01:52:03;11.93;;;4.53;;
27706;SDS011;36332;51.384;0.040;2023-01-30T01:57:05;8.48;;;2.97;;
27706;SDS011;36332;51.384;0.040;2023-01-30T01:59:51;14.27;;;2.92;;
27706;SDS011;36332;51.384;0.040;2023-01-30T02:02:39;8.82;;;2.85;;
27706;SDS011;36332;51.384;0.040;2023-01-30T02:05:14;11.63;;;3.53;;
27706;SDS011;36332;51.384;0.040;2023-01-30T02:10:28;10.68;;;3.40;;
27706;SDS011;36332;51.384;0.040;2023-01-30T02:13:03;21.70;;;3.65;;
27706;SDS011;36332;51.384;0.040;2023-01-30T02:15:31;9.05;;;3.53;;
27706;SDS011;36332;51.384;0.040;2023-01-30T02:18:00;16.40;;;3.55;;
27706;SDS011;36332;51.384;0.040;2023-01-30T02:20:41;8.18;;;2.85;;
27706;SDS011;36332;51.384;0.040;2023-01-30T02:26:16;13.10;;;3.70;;
27706;SDS011;36332;51.384;0.040;2023-01-30T02:37:57;19.85;;;3.63;;
27706;SDS011;36332;51.384;0.040;2023-01-30T02:45:55;7.15;;;2.70;;
27706;SDS011;36332;51.384;0.040;2023-01-30T02:48:35;13.98;;;3.05;;
27706;SDS011;36332;51.384;0.040;2023-01-30T02:51:13;12.85;;;3.38;;
27706;SDS011;36332;51.384;0.040;2023-01-30T02:54:04;13.68;;;4.10;;
27706;SDS011;36332;51.384;0.040;2023-01-30T02:59:16;9.38;;;3.15;;
27706;SDS011;36332;51.384;0.040;2023-01-30T03:04:29;13.40;;;4.05;;
27706;SDS011;36332;51.384;0.040;2023-01-30T03:09:57;7.68;;;3.20;;
27706;SDS011;36332;51.384;0.040;2023-01-30T03:12:44;11.32;;;2.92;;
27706;SDS011;36332;51.384;0.040;2023-01-30T03:15:24;11.93;;;3.83;;
27706;SDS011;36332;51.384;0.040;2023-01-30T03:18:02;15.60;;;3.80;;
27706;SDS011;36332;51.384;0.040;2023-01-30T03:20:30;13.10;;;3.05;;
27706;SDS011;36332;51.384;0.040;2023-01-30T03:23:04;18.48;;;3.40;;
27706;SDS011;36332;51.384;0.040;2023-01-30T03:25:34;13.65;;;3.30;;
27706;SDS011;36332;51.384;0.040;2023-01-30T03:28:05;14.35;;;3.00;;
27706;SDS011;36332;51.384;0.040;2023-01-30T03:30:34;7.00;;;3.08;;
27706;SDS011;36332;51.384;0.040;2023-01-30T03:33:08;13.15;;;3.85;;
27706;SDS011;36332;51.384;0.040;2023-01-30T03:35:39;10.15;;;3.20;;
27706;SDS011;36332;51.384;0.040;2023-01-30T03:38:08;12.43;;;3.10;;
27706;SDS011;36332;51.384;0.040;2023-01-30T03:40:36;21.20;;;3.38;;
27706;SDS011;36332;51.384;0.040;2023-01-30T03:43:04;12.23;;;3.33;;
27706;SDS011;36332;51.384;0.040;2023-01-30T03:45:32;12.10;;;3.35;;
27706;SDS011;36332;51.384;0.040;2023-01-30T03:48:01;15.48;;;3.25;;
27706;SDS011;36332;51.384;0.040;2023-01-30T03:50:29;21.35;;;3.88;;
27706;SDS011;36332;51.384;0.040;2023-01-30T03:52:57;8.45;;;3.13;;
27706;SDS011;36332;51.384;0.040;2023-01-30T03:55:25;14.27;;;3.80;;
27706;SDS011;36332;51.384;0.040;2023-01-30T03:57:55;16.98;;;3.53;;
27706;SDS011;36332;51.384;0.040;2023-01-30T04:00:26;17.00;;;3.30;;
27706;SDS011;36332;51.384;0.040;2023-01-30T04:02:55;9.27;;;3.40;;
27706;SDS011;36332;51.384;0.040;2023-01-30T04:05:23;14.57;;;3.63;;
27706;SDS011;36332;51.384;0.040;2023-01-30T04:07:56;14.23;;;3.85;;
27706;SDS011;36332;51.384;0.040;2023-01-30T04:10:25;9.05;;;3.30;;
27706;SDS011;36332;51.384;0.040;2023-01-30T04:12:53;13.90;;;3.05;;
27706;SDS011;36332;51.384;0.040;2023-01-30T04:15:22;6.80;;;3.95;;
27706;SDS011;36332;51.384;0.040;2023-01-30T04:18:08;14.18;;;3.90;;
27706;SDS011;36332;51.384;0.040;2023-01-30T04:20:48;13.63;;;3.60;;
27706;SDS011;36332;51.384;0.040;2023-01-30T04:23:22;9.90;;;3.75;;
27706;SDS011;36332;51.384;0.040;2023-01-30T04:25:49;12.73;;;3.95;;
27706;SDS011;36332;51.384;0.040;2023-01-30T04:28:19;17.45;;;4.55;;
27706;SDS011;36332;51.384;0.040;2023-01-30T04:30:47;14.32;;;3.63;;
27706;SDS011;36332;51.384;0.040;2023-01-30T04:33:33;18.13;;;4.95;;
27706;SDS011;36332;51.384;0.040;2023-01-30T04:36:03;13.32;;;4.22;;
27706;SDS011;36332;51.384;0.040;2023-01-30T04:38:32;17.77;;;4.13;;
27706;SDS011;36332;51.384;0.040;2023-01-30T04:41:01;10.90;;;3.75;;
27706;SDS011;36332;51.384;0.040;2023-01-30T04:43:32;13.30;;;4.25;;
27706;SDS011;36332;51.384;0.040;2023-01-30T04:46:08;21.88;;;4.30;;
27706;SDS011;36332;51.384;0.040;2023-01-30T04:48:36;19.88;;;4.32;;
27706;SDS011;36332;51.384;0.040;2023-01-30T04:51:05;11.98;;;5.07;;
27706;SDS011;36332;51.384;0.040;2023-01-30T04:53:36;14.13;;;5.38;;
27706;SDS011;36332;51.384;0.040;2023-01-30T04:56:04;17.27;;;4.47;;
27706;SDS011;36332;51.384;0.040;2023-01-30T04:58:32;16.23;;;5.25;;
27706;SDS011;36332;51.384;0.040;2023-01-30T05:01:20;22.75;;;4.97;;
27706;SDS011;36332;51.384;0.040;2023-01-30T05:03:55;19.60;;;5.10;;
27706;SDS011;36332;51.384;0.040;2023-01-30T05:06:23;24.25;;;7.72;;
27706;SDS011;36332;51.384;0.040;2023-01-30T05:08:52;16.98;;;4.75;;
27706;SDS011;36332;51.384;0.040;2023-01-30T05:11:21;18.52;;;5.65;;
27706;SDS011;36332;51.384;0.040;2023-01-30T05:13:50;16.10;;;4.97;;
27706;SDS011;36332;51.384;0.040;2023-01-30T05:16:18;16.35;;;5.35;;
27706;SDS011;36332;51.384;0.040;2023-01-30T05:18:47;12.85;;;4.82;;
27706;SDS011;36332;51.384;0.040;2023-01-30T05:21:18;16.88;;;5.35;;
27706;SDS011;36332;51.384;0.040;2023-01-30T05:23:47;10.43;;;4.60;;
27706;SDS011;36332;51.384;0.040;2023-01-30T05:26:16;16.67;;;5.00;;
27706;SDS011;36332;51.384;0.040;2023-01-30T05:28:49;18.33;;;4.40;;
27706;SDS011;36332;51.384;0.040;2023-01-30T05:31:17;9.68;;;4.45;;
27706;SDS011;36332;51.384;0.040;2023-01-30T05:33:45;22.83;;;4.60;;
27706;SDS011;36332;51.384;0.040;2023-01-30T05:36:16;17.67;;;5.93;;
27706;SDS011;36332;51.384;0.040;2023-01-30T05:38:44;20.60;;;5.38;;
27706;SDS011;36332;51.384;0.040;2023-01-30T05:41:13;18.60;;;5.38;;
27706;SDS011;36332;51.384;0.040;2023-01-30T05:43:42;11.57;;;4.80;;
27706;SDS011;36332;51.384;0.040;2023-01-30T05:46:10;17.52;;;6.60;;
27706;SDS011;36332;51.384;0.040;2023-01-30T05:48:39;12.00;;;5.65;;
27706;SDS011;36332;51.384;0.040;2023-01-30T05:51:13;19.00;;;4.70;;
27706;SDS011;36332;51.384;0.040;2023-01-30T05:53:46;29.77;;;5.22;;
27706;SDS011;36332;51.384;0.040;2023-01-30T05:56:14;16.50;;;4.63;;
27706;SDS011;36332;51.384;0.040;2023-01-30T05:58:42;21.50;;;5.55;;
27706;SDS011;36332;51.384;0.040;2023-01-30T06:01:11;16.67;;;5.40;;
27706;SDS011;36332;51.384;0.040;2023-01-30T06:03:38;21.55;;;5.10;;
27706;SDS011;36332;51.384;0.040;2023-01-30T06:06:06;16.95;;;4.97;;
27706;SDS011;36332;51.384;0.040;2023-01-30T06:08:34;19.10;;;5.43;;
27706;SDS011;36332;51.384;0.040;2023-01-30T06:11:02;22.40;;;6.20;;
27706;SDS011;36332;51.384;0.040;2023-01-30T06:13:32;14.68;;;6.07;;
27706;SDS011;36332;51.384;0.040;2023-01-30T06:15:59;23.42;;;7.20;;
27706;SDS011;36332;51.384;0.040;2023-01-30T06:18:27;19.90;;;6.15;;
27706;SDS011;36332;51.384;0.040;2023-01-30T06:20:55;18.92;;;5.47;;
27706;SDS011;36332;51.384;0.040;2023-01-30T06:23:23;20.88;;;5.65;;
27706;SDS011;36332;51.384;0.040;2023-01-30T06:25:51;18.63;;;6.82;;
27706;SDS011;36332;51.384;0.040;2023-01-30T06:28:19;15.20;;;6.10;;
27706;SDS011;36332;51.384;0.040;2023-01-30T06:30:47;16.15;;;7.70;;
27706;SDS011;36332;51.384;0.040;2023-01-30T06:33:15;22.50;;;6.43;;
27706;SDS011;36332;51.384;0.040;2023-01-30T06:35:43;16.48;;;5.85;;
27706;SDS011;36332;51.384;0.040;2023-01-30T06:38:11;11.25;;;4.90;;
27706;SDS011;36332;51.384;0.040;2023-01-30T06:40:42;13.77;;;5.88;;
27706;SDS011;36332;51.384;0.040;2023-01-30T06:43:11;17.58;;;6.20;;
27706;SDS011;36332;51.384;0.040;2023-01-30T06:45:39;12.15;;;4.93;;
27706;SDS011;36332;51.384;0.040;2023-01-30T06:48:07;19.65;;;4.82;;
27706;SDS011;36332;51.384;0.040;2023-01-30T06:50:35;22.45;;;4.30;;
27706;SDS011;36332;51.384;0.040;2023-01-30T06:53:04;23.67;;;6.07;;
27706;SDS011;36332;51.384;0.040;2023-01-30T06:55:34;22.50;;;5.47;;
27706;SDS011;36332;51.384;0.040;2023-01-30T06:58:03;25.20;;;6.82;;
27706;SDS011;36332;51.384;0.040;2023-01-30T07:00:35;19.20;;;4.90;;
27706;SDS011;36332;51.384;0.040;2023-01-30T07:03:09;18.42;;;4.00;;
27706;SDS011;36332;51.384;0.040;2023-01-30T07:05:41;21.08;;;4.43;;
27706;SDS011;36332;51.384;0.040;2023-01-30T07:08:10;23.02;;;4.53;;
27706;SDS011;36332;51.384;0.040;2023-01-30T07:10:39;19.55;;;4.22;;
27706;SDS011;36332;51.384;0.040;2023-01-30T07:13:08;21.92;;;4.90;;
27706;SDS011;36332;51.384;0.040;2023-01-30T07:15:36;19.00;;;3.83;;
27706;SDS011;36332;51.384;0.040;2023-01-30T07:18:04;13.70;;;4.18;;
27706;SDS011;36332;51.384;0.040;2023-01-30T07:20:32;13.48;;;4.90;;
27706;SDS011;36332;51.384;0.040;2023-01-30T07:22:59;20.88;;;5.35;;
27706;SDS011;36332;51.384;0.040;2023-01-30T07:25:27;17.13;;;4.93;;
27706;SDS011;36332;51.384;0.040;2023-01-30T07:27:56;16.27;;;4.60;;
27706;SDS011;36332;51.384;0.040;2023-01-30T07:30:25;25.42;;;5.15;;
27706;SDS011;36332;51.384;0.040;2023-01-30T07:32:58;30.02;;;5.28;;
27706;SDS011;36332;51.384;0.040;2023-01-30T07:35:28;23.33;;;5.15;;
27706;SDS011;36332;51.384;0.040;2023-01-30T07:37:57;17.23;;;5.20;;
27706;SDS011;36332;51.384;0.040;2023-01-30T07:40:24;22.50;;;5.05;;
27706;SDS011;36332;51.384;0.040;2023-01-30T07:42:59;26.50;;;6.45;;
27706;SDS011;36332;51.384;0.040;2023-01-30T07:45:38;18.90;;;6.85;;
27706;SDS011;36332;51.384;0.040;2023-01-30T07:48:11;14.18;;;5.65;;
27706;SDS011;36332;51.384;0.040;2023-01-30T07:50:40;10.70;;;4.18;;
27706;SDS011;36332;51.384;0.040;2023-01-30T07:53:09;13.70;;;4.00;;
27706;SDS011;36332;51.384;0.040;2023-01-30T07:55:39;19.83;;;5.05;;
27706;SDS011;36332;51.384;0.040;2023-01-30T07:58:06;18.65;;;3.95;;
27706;SDS011;36332;51.384;0.040;2023-01-30T08:00:36;19.83;;;4.40;;
27706;SDS011;36332;51.384;0.040;2023-01-30T08:03:04;20.48;;;3.97;;
27706;SDS011;36332;51.384;0.040;2023-01-30T08:05:31;13.10;;;3.53;;
27706;SDS011;36332;51.384;0.040;2023-01-30T08:07:59;22.35;;;4.70;;
27706;SDS011;36332;51.384;0.040;2023-01-30T08:10:26;20.85;;;3.60;;
27706;SDS011;36332;51.384;0.040;2023-01-30T08:12:54;24.63;;;4.28;;
27706;SDS011;36332;51.384;0.040;2023-01-30T08:15:21;14.70;;;2.95;;
27706;SDS011;36332;51.384;0.040;2023-01-30T08:17:55;13.63;;;2.78;;
27706;SDS011;36332;51.384;0.040;2023-01-30T08:20:23;17.38;;;2.88;;
27706;SDS011;36332;51.384;0.040;2023-01-30T08:22:51;20.05;;;3.05;;
27706;SDS011;36332;51.384;0.040;2023-01-30T08:25:19;26.02;;;4.05;;
27706;SDS011;36332;51.384;0.040;2023-01-30T08:27:48;16.35;;;3.00;;
27706;SDS011;36332;51.384;0.040;2023-01-30T08:30:15;11.63;;;2.70;;
27706;SDS011;36332;51.384;0.040;2023-01-30T08:32:44;13.95;;;2.78;;
27706;SDS011;36332;51.384;0.040;2023-01-30T08:35:12;21.40;;;2.80;;
27706;SDS011;36332;51.384;0.040;2023-01-30T08:37:40;12.63;;;2.33;;
27706;SDS011;36332;51.384;0.040;2023-01-30T08:40:08;13.13;;;2.80;;
27706;SDS011;36332;51.384;0.040;2023-01-30T08:42:37;14.45;;;2.55;;
27706;SDS011;36332;51.384;0.040;2023-01-30T08:45:05;14.68;;;2.80;;
27706;SDS011;36332;51.384;0.040;2023-01-30T08:47:33;14.18;;;2.78;;
27706;SDS011;36332;51.384;0.040;2023-01-30T08:50:02;15.15;;;2.72;;
27706;SDS011;36332;51.384;0.040;2023-01-30T08:52:31;15.18;;;2.58;;
27706;SDS011;36332;51.384;0.040;2023-01-30T08:55:00;14.13;;;2.75;;
27706;SDS011;36332;51.384;0.040;2023-01-30T08:57:27;20.88;;;3.67;;
27706;SDS011;36332;51.384;0.040;2023-01-30T08:59:55;14.93;;;3.00;;
27706;SDS011;36332;51.384;0.040;2023-01-30T09:02:22;15.48;;;2.33;;
27706;SDS011;36332;51.384;0.040;2023-01-30T09:04:50;12.77;;;2.13;;
27706;SDS011;36332;51.384;0.040;2023-01-30T09:07:18;15.70;;;2.38;;
27706;SDS011;36332;51.384;0.040;2023-01-30T09:09:45;17.10;;;2.40;;
27706;SDS011;36332;51.384;0.040;2023-01-30T09:12:14;11.55;;;2.38;;
27706;SDS011;36332;51.384;0.040;2023-01-30T09:14:41;13.43;;;2.42;;
27706;SDS011;36332;51.384;0.040;2023-01-30T09:17:09;14.00;;;2.75;;
27706;SDS011;36332;51.384;0.040;2023-01-30T09:19:36;15.68;;;3.22;;
27706;SDS011;36332;51.384;0.040;2023-01-30T09:22:04;20.63;;;4.15;;
27706;SDS011;36332;51.384;0.040;2023-01-30T09:24:35;18.35;;;3.20;;
27706;SDS011;36332;51.384;0.040;2023-01-30T09:27:03;19.10;;;3.15;;
27706;SDS011;36332;51.384;0.040;2023-01-30T09:29:30;10.55;;;2.70;;
27706;SDS011;36332;51.384;0.040;2023-01-30T09:31:58;19.70;;;3.25;;
27706;SDS011;36332;51.384;0.040;2023-01-30T09:34:25;22.13;;;3.25;;
27706;SDS011;36332;51.384;0.040;2023-01-30T09:36:55;22.98;;;4.68;;
27706;SDS011;36332;51.384;0.040;2023-01-30T09:39:28;12.35;;;2.67;;
27706;SDS011;36332;51.384;0.040;2023-01-30T09:50:36;11.70;;;2.72;;
27706;SDS011;36332;51.384;0.040;2023-01-30T09:55:53;15.20;;;3.40;;
27706;SDS011;36332;51.384;0.040;2023-01-30T09:58:25;18.77;;;3.78;;
27706;SDS011;36332;51.384;0.040;2023-01-30T10:01:07;17.90;;;3.55;;
27706;SDS011;36332;51.384;0.040;2023-01-30T10:03:54;11.52;;;3.00;;
27706;SDS011;36332;51.384;0.040;2023-01-30T10:07:06;16.00;;;4.25;;
27706;SDS011;36332;51.384;0.040;2023-01-30T10:09:49;18.25;;;3.50;;
27706;SDS011;36332;51.384;0.040;2023-01-30T10:13:02;18.23;;;3.13;;
27706;SDS011;36332;51.384;0.040;2023-01-30T10:18:01;14.30;;;2.75;;
27706;SDS011;36332;51.384;0.040;2023-01-30T10:26:04;15.38;;;3.22;;
27706;SDS011;36332;51.384;0.040;2023-01-30T10:31:36;10.82;;;3.15;;
27706;SDS011;36332;51.384;0.040;2023-01-30T10:34:18;14.90;;;3.78;;
27706;SDS011;36332;51.384;0.040;2023-01-30T10:42:44;17.52;;;3.10;;
27706;SDS011;36332;51.384;0.040;2023-01-30T10:45:18;21.25;;;3.30;;
27706;SDS011;36332;51.384;0.040;2023-01-30T10:51:17;21.20;;;2.83;;
27706;SDS011;36332;51.384;0.040;2023-01-30T11:02:24;18.35;;;3.22;;
27706;SDS011;36332;51.384;0.040;2023-01-30T11:05:14;21.38;;;3.60;;
27706;SDS011;36332;51.384;0.040;2023-01-30T11:07:44;16.83;;;4.05;;
27706;SDS011;36332;51.384;0.040;2023-01-30T11:10:18;16.48;;;3.05;;
27706;SDS011;36332;51.384;0.040;2023-01-30T11:12:52;20.77;;;3.28;;
27706;SDS011;36332;51.384;0.040;2023-01-30T11:15:37;26.88;;;3.20;;
27706;SDS011;36332;51.384;0.040;2023-01-30T11:18:05;15.57;;;3.20;;
27706;SDS011;36332;51.384;0.040;2023-01-30T11:21:04;18.33;;;3.80;;
27706;SDS011;36332;51.384;0.040;2023-01-30T11:26:41;24.70;;;3.65;;
27706;SDS011;36332;51.384;0.040;2023-01-30T11:29:29;21.77;;;3.95;;
27706;SDS011;36332;51.384;0.040;2023-01-30T11:32:03;13.27;;;3.10;;
27706;SDS011;36332;51.384;0.040;2023-01-30T11:34:37;16.55;;;3.00;;
27706;SDS011;36332;51.384;0.040;2023-01-30T11:37:11;13.60;;;2.97;;
27706;SDS011;36332;51.384;0.040;2023-01-30T11:39:56;17.15;;;2.80;;
27706;SDS011;36332;51.384;0.040;2023-01-30T11:42:25;20.98;;;3.22;;
27706;SDS011;36332;51.384;0.040;2023-01-30T11:44:57;11.23;;;3.25;;
27706;SDS011;36332;51.384;0.040;2023-01-30T11:47:49;22.17;;;3.67;;
27706;SDS011;36332;51.384;0.040;2023-01-30T11:50:32;14.02;;;3.50;;
27706;SDS011;36332;51.384;0.040;2023-01-30T11:53:35;21.13;;;4.28;;
27706;SDS011;36332;51.384;0.040;2023-01-30T11:56:16;21.50;;;4.07;;
27706;SDS011;36332;51.384;0.040;2023-01-30T11:58:48;17.42;;;2.70;;
27706;SDS011;36332;51.384;0.040;2023-01-30T12:01:27;15.75;;;3.42;;
27706;SDS011;36332;51.384;0.040;2023-01-30T12:03:57;17.05;;;3.88;;
27706;SDS011;36332;51.384;0.040;2023-01-30T12:06:29;12.98;;;3.85;;
27706;SDS011;36332;51.384;0.040;2023-01-30T12:09:00;18.70;;;4.93;;
27706;SDS011;36332;51.384;0.040;2023-01-30T12:14:15;18.60;;;4.50;;
27706;SDS011;36332;51.384;0.040;2023-01-30T12:27:18;14.65;;;3.35;;
27706;SDS011;36332;51.384;0.040;2023-01-30T12:29:58;19.27;;;3.47;;
27706;SDS011;36332;51.384;0.040;2023-01-30T12:32:32;14.00;;;3.08;;
27706;SDS011;36332;51.384;0.040;2023-01-30T12:35:06;16.40;;;3.00;;
27706;SDS011;36332;51.384;0.040;2023-01-30T12:37:45;21.42;;;4.28;;
27706;SDS011;36332;51.384;0.040;2023-01-30T12:40:26;15.50;;;3.15;;
27706;SDS011;36332;51.384;0.040;2023-01-30T12:43:33;17.23;;;3.55;;
27706;SDS011;36332;51.384;0.040;2023-01-30T12:49:28;21.52;;;5.47;;
27706;SDS011;36332;51.384;0.040;2023-01-30T12:51:58;20.15;;;3.20;;
27706;SDS011;36332;51.384;0.040;2023-01-30T12:54:51;20.20;;;3.90;;
27706;SDS011;36332;51.384;0.040;2023-01-30T12:57:46;22.08;;;3.28;;
27706;SDS011;36332;51.384;0.040;2023-01-30T13:03:15;25.90;;;3.97;;
27706;SDS011;36332;51.384;0.040;2023-01-30T13:06:05;18.30;;;3.28;;
27706;SDS011;36332;51.384;0.040;2023-01-30T13:08:50;14.50;;;2.85;;
27706;SDS011;36332;51.384;0.040;2023-01-30T13:11:44;15.48;;;2.85;;
27706;SDS011;36332;51.384;0.040;2023-01-30T13:17:10;18.30;;;3.60;;
27706;SDS011;36332;51.384;0.040;2023-01-30T13:25:16;15.13;;;2.90;;
27706;SDS011;36332;51.384;0.040;2023-01-30T13:27:57;16.00;;;3.28;;
27706;SDS011;36332;51.384;0.040;2023-01-30T13:30:28;15.38;;;3.53;;
27706;SDS011;36332;51.384;0.040;2023-01-30T13:33:03;15.02;;;3.30;;
27706;SDS011;36332;51.384;0.040;2023-01-30T13:36:20;18.10;;;4.03;;
27706;SDS011;36332;51.384;0.040;2023-01-30T13:41:26;17.25;;;3.35;;
27706;SDS011;36332;51.384;0.040;2023-01-30T13:44:10;18.42;;;3.35;;
27706;SDS011;36332;51.384;0.040;2023-01-30T13:46:54;19.17;;;3.70;;
27706;SDS011;36332;51.384;0.040;2023-01-30T13:49:36;11.52;;;2.60;;
27706;SDS011;36332;51.384;0.040;2023-01-30T13:52:31;15.20;;;3.30;;
27706;SDS011;36332;51.384;0.040;2023-01-30T13:58:21;15.57;;;3.47;;
27706;SDS011;36332;51.384;0.040;2023-01-30T14:00:57;14.00;;;3.08;;
27706;SDS011;36332;51.384;0.040;2023-01-30T14:03:28;17.38;;;3.80;;
27706;SDS011;36332;51.384;0.040;2023-01-30T14:06:01;15.25;;;2.92;;
27706;SDS011;36332;51.384;0.040;2023-01-30T14:11:28;15.57;;;2.65;;
27706;SDS011;36332;51.384;0.040;2023-01-30T14:16:45;15.98;;;3.63;;
27706;SDS011;36332;51.384;0.040;2023-01-30T14:22:46;13.48;;;3.25;;
27706;SDS011;36332;51.384;0.040;2023-01-30T14:27:50;23.30;;;4.28;;
27706;SDS011;36332;51.384;0.040;2023-01-30T14:38:26;23.45;;;4.07;;
27706;SDS011;36332;51.384;0.040;2023-01-30T15:07:28;26.90;;;4.53;;
27706;SDS011;36332;51.384;0.040;2023-01-30T15:24:25;19.52;;;4.10;;
27706;SDS011;36332;51.384;0.040;2023-01-30T15:33:14;16.60;;;3.10;;
27706;SDS011;36332;51.384;0.040;2023-01-30T15:35:56;29.40;;;4.00;;
27706;SDS011;36332;51.384;0.040;2023-01-30T15:38:28;18.65;;;3.92;;
27706;SDS011;36332;51.384;0.040;2023-01-30T15:41:02;22.20;;;4.57;;
27706;SDS011;36332;51.384;0.040;2023-01-30T15:46:29;22.83;;;4.45;;
27706;SDS011;36332;51.384;0.040;2023-01-30T15:51:48;22.38;;;4.63;;
27706;SDS011;36332;51.384;0.040;2023-01-30T15:54:18;22.92;;;5.45;;
27706;SDS011;36332;51.384;0.040;2023-01-30T15:56:49;23.20;;;4.00;;
27706;SDS011;36332;51.384;0.040;2023-01-30T16:01:57;26.08;;;5.03;;
27706;SDS011;36332;51.384;0.040;2023-01-30T16:04:31;22.02;;;4.93;;
27706;SDS011;36332;51.384;0.040;2023-01-30T16:06:59;23.05;;;5.05;;
27706;SDS011;36332;51.384;0.040;2023-01-30T16:09:40;29.10;;;3.97;;
27706;SDS011;36332;51.384;0.040;2023-01-30T16:12:24;22.30;;;4.15;;
27706;SDS011;36332;51.384;0.040;2023-01-30T16:14:53;22.15;;;3.63;;
27706;SDS011;36332;51.384;0.040;2023-01-30T16:17:34;19.85;;;4.43;;
27706;SDS011;36332;51.384;0.040;2023-01-30T16:20:02;21.77;;;3.85;;
27706;SDS011;36332;51.384;0.040;2023-01-30T16:22:31;21.95;;;4.63;;
27706;SDS011;36332;51.384;0.040;2023-01-30T16:25:00;26.55;;;5.15;;
27706;SDS011;36332;51.384;0.040;2023-01-30T16:27:30;24.42;;;5.70;;
27706;SDS011;36332;51.384;0.040;2023-01-30T16:30:00;23.90;;;4.25;;
27706;SDS011;36332;51.384;0.040;2023-01-30T16:32:33;28.40;;;4.10;;
27706;SDS011;36332;51.384;0.040;2023-01-30T16:37:54;21.10;;;4.13;;
27706;SDS011;36332;51.384;0.040;2023-01-30T16:40:27;23.42;;;6.22;;
27706;SDS011;36332;51.384;0.040;2023-01-30T16:43:03;20.67;;;5.25;;
27706;SDS011;36332;51.384;0.040;2023-01-30T16:48:31;30.38;;;4.38;;
27706;SDS011;36332;51.384;0.040;2023-01-30T16:53:29;24.48;;;4.78;;
27706;SDS011;36332;51.384;0.040;2023-01-30T16:58:28;31.40;;;6.05;;
27706;SDS011;36332;51.384;0.040;2023-01-30T17:00:59;20.95;;;4.28;;
27706;SDS011;36332;51.384;0.040;2023-01-30T17:03:34;20.58;;;5.10;;
27706;SDS011;36332;51.384;0.040;2023-01-30T17:06:08;31.77;;;5.13;;
27706;SDS011;36332;51.384;0.040;2023-01-30T17:14:08;22.38;;;4.72;;
27706;SDS011;36332;51.384;0.040;2023-01-30T17:17:00;25.10;;;6.10;;
27706;SDS011;36332;51.384;0.040;2023-01-30T17:19:29;29.83;;;4.57;;
27706;SDS011;36332;51.384;0.040;2023-01-30T17:21:56;23.17;;;5.25;;
27706;SDS011;36332;51.384;0.040;2023-01-30T17:24:25;29.73;;;5.47;;
27706;SDS011;36332;51.384;0.040;2023-01-30T17:26:58;32.47;;;5.68;;
27706;SDS011;36332;51.384;0.040;2023-01-30T17:29:29;23.63;;;5.45;;
27706;SDS011;36332;51.384;0.040;2023-01-30T17:32:10;26.38;;;5.78;;
27706;SDS011;36332;51.384;0.040;2023-01-30T17:34:39;21.02;;;5.20;;
27706;SDS011;36332;51.384;0.040;2023-01-30T17:37:09;35.33;;;5.80;;
27706;SDS011;36332;51.384;0.040;2023-01-30T17:39:44;25.42;;;4.85;;
27706;SDS011;36332;51.384;0.040;2023-01-30T17:42:12;25.48;;;4.95;;
27706;SDS011;36332;51.384;0.040;2023-01-30T17:44:41;30.20;;;6.28;;
27706;SDS011;36332;51.384;0.040;2023-01-30T17:47:10;27.40;;;4.78;;
27706;SDS011;36332;51.384;0.040;2023-01-30T17:49:38;22.60;;;4.88;;
27706;SDS011;36332;51.384;0.040;2023-01-30T17:52:06;25.70;;;5.45;;
27706;SDS011;36332;51.384;0.040;2023-01-30T17:54:35;29.75;;;5.22;;
27706;SDS011;36332;51.384;0.040;2023-01-30T17:57:03;31.75;;;5.63;;
27706;SDS011;36332;51.384;0.040;2023-01-30T17:59:32;24.10;;;6.50;;
27706;SDS011;36332;51.384;0.040;2023-01-30T18:01:59;30.23;;;4.63;;
27706;SDS011;36332;51.384;0.040;2023-01-30T18:04:27;30.52;;;5.28;;
27706;SDS011;36332;51.384;0.040;2023-01-30T18:06:58;23.67;;;6.45;;
27706;SDS011;36332;51.384;0.040;2023-01-30T18:09:30;29.75;;;7.28;;
27706;SDS011;36332;51.384;0.040;2023-01-30T18:11:58;34.45;;;9.80;;
27706;SDS011;36332;51.384;0.040;2023-01-30T18:14:26;27.67;;;7.72;;
27706;SDS011;36332;51.384;0.040;2023-01-30T18:16:54;26.67;;;7.50;;
27706;SDS011;36332;51.384;0.040;2023-01-30T18:19:26;36.70;;;10.38;;
27706;SDS011;36332;51.384;0.040;2023-01-30T18:21:55;26.90;;;8.35;;
27706;SDS011;36332;51.384;0.040;2023-01-30T18:24:24;30.70;;;7.38;;
27706;SDS011;36332;51.384;0.040;2023-01-30T18:26:52;29.17;;;7.50;;
27706;SDS011;36332;51.384;0.040;2023-01-30T18:29:19;31.67;;;7.70;;